sensor_id;sensor_type;location;lat;lon;timestamp;pressure;altitude;pressure_sealevel;temperature;humidity
51239;BME280;38154;47.548;18.828;2023-07-16T00:00:16;98659.81;;;23.70;78.43
51239;BME280;38154;47.548;18.828;2023-07-16T00:02:44;98652.09;;;23.66;78.76
51239;BME280;38154;47.548;18.828;2023-07-16T00:05:10;98651.22;;;23.65;79.01
51239;BME280;38154;47.548;18.828;2023-07-16T00:07:35;98656.41;;;23.68;78.80
51239;BME280;38154;47.548;18.828;2023-07-16T00:10:02;98644.25;;;23.63;79.08
51239;BME280;38154;47.548;18.828;2023-07-16T00:12:28;98648.81;;;23.61;79.12
51239;BME280;38154;47.548;18.828;2023-07-16T00:14:53;98637.16;;;23.63;78.72
51239;BME280;38154;47.548;18.828;2023-07-16T00:17:20;98641.44;;;23.66;78.59
51239;BME280;38154;47.548;18.828;2023-07-16T00:19:46;98648.31;;;23.70;78.33
51239;BME280;38154;47.548;18.828;2023-07-16T00:22:12;98642.03;;;23.71;78.16
51239;BME280;38154;47.548;18.828;2023-07-16T00:24:38;98636.72;;;23.71;77.69
51239;BME280;38154;47.548;18.828;2023-07-16T00:27:04;98647.03;;;23.77;77.06
51239;BME280;38154;47.548;18.828;2023-07-16T00:29:30;98638.22;;;23.77;76.90
51239;BME280;38154;47.548;18.828;2023-07-16T00:31:56;98639.06;;;23.77;76.65
51239;BME280;38154;47.548;18.828;2023-07-16T00:34:21;98637.53;;;23.73;76.78
51239;BME280;38154;47.548;18.828;2023-07-16T00:36:47;98636.37;;;23.77;76.47
51239;BME280;38154;47.548;18.828;2023-07-16T00:39:13;98629.34;;;23.76;76.57
51239;BME280;38154;47.548;18.828;2023-07-16T00:41:39;98629.03;;;23.82;75.90
51239;BME280;38154;47.548;18.828;2023-07-16T00:44:06;98637.25;;;23.78;76.00
51239;BME280;38154;47.548;18.828;2023-07-16T00:46:32;98634.94;;;23.71;76.41
51239;BME280;38154;47.548;18.828;2023-07-16T00:48:58;98630.53;;;23.70;76.16
51239;BME280;38154;47.548;18.828;2023-07-16T00:51:24;98627.81;;;23.72;76.11
51239;BME280;38154;47.548;18.828;2023-07-16T00:53:51;98626.75;;;23.75;75.83
51239;BME280;38154;47.548;18.828;2023-07-16T00:56:17;98618.16;;;23.69;76.03
51239;BME280;38154;47.548;18.828;2023-07-16T00:58:44;98618.16;;;23.69;76.13
51239;BME280;38154;47.548;18.828;2023-07-16T01:01:10;98630.19;;;23.61;76.53
51239;BME280;38154;47.548;18.828;2023-07-16T01:03:36;98622.28;;;23.59;76.73
51239;BME280;38154;47.548;18.828;2023-07-16T01:06:15;98620.75;;;23.55;76.68
51239;BME280;38154;47.548;18.828;2023-07-16T01:11:19;98613.59;;;23.56;76.43
51239;BME280;38154;47.548;18.828;2023-07-16T01:13:45;98620.41;;;23.61;75.90
51239;BME280;38154;47.548;18.828;2023-07-16T01:16:21;98610.88;;;23.57;75.96
51239;BME280;38154;47.548;18.828;2023-07-16T01:18:48;98617.12;;;23.56;76.00
51239;BME280;38154;47.548;18.828;2023-07-16T01:21:15;98615.34;;;23.57;75.70
51239;BME280;38154;47.548;18.828;2023-07-16T01:29:45;98621.16;;;23.47;76.05
51239;BME280;38154;47.548;18.828;2023-07-16T01:32:12;98619.84;;;23.39;76.71
51239;BME280;38154;47.548;18.828;2023-07-16T01:34:39;98620.09;;;23.34;76.72
51239;BME280;38154;47.548;18.828;2023-07-16T01:37:06;98611.34;;;23.32;76.96
51239;BME280;38154;47.548;18.828;2023-07-16T01:39:32;98618.47;;;23.31;76.78
51239;BME280;38154;47.548;18.828;2023-07-16T01:42:01;98610.47;;;23.31;76.96
51239;BME280;38154;47.548;18.828;2023-07-16T01:44:27;98609.44;;;23.34;76.67
51239;BME280;38154;47.548;18.828;2023-07-16T01:47:04;98613.66;;;23.38;76.63
51239;BME280;38154;47.548;18.828;2023-07-16T01:49:32;98611.09;;;23.37;76.88
51239;BME280;38154;47.548;18.828;2023-07-16T01:51:59;98608.50;;;23.35;76.94
51239;BME280;38154;47.548;18.828;2023-07-16T01:54:24;98610.22;;;23.36;77.31
51239;BME280;38154;47.548;18.828;2023-07-16T01:56:50;98607.97;;;23.28;77.26
51239;BME280;38154;47.548;18.828;2023-07-16T01:59:16;98602.03;;;23.23;77.72
51239;BME280;38154;47.548;18.828;2023-07-16T02:01:42;98607.53;;;23.20;78.14
51239;BME280;38154;47.548;18.828;2023-07-16T02:04:08;98601.44;;;23.18;78.66
51239;BME280;38154;47.548;18.828;2023-07-16T02:06:34;98603.12;;;23.19;78.79
51239;BME280;38154;47.548;18.828;2023-07-16T02:09:00;98602.69;;;23.11;79.29
51239;BME280;38154;47.548;18.828;2023-07-16T02:11:25;98603.12;;;23.19;78.69
51239;BME280;38154;47.548;18.828;2023-07-16T02:13:51;98601.97;;;23.07;79.80
51239;BME280;38154;47.548;18.828;2023-07-16T02:16:17;98587.88;;;23.05;80.44
51239;BME280;38154;47.548;18.828;2023-07-16T02:18:43;98592.44;;;23.03;81.44
51239;BME280;38154;47.548;18.828;2023-07-16T02:21:09;98586.25;;;23.03;82.63
51239;BME280;38154;47.548;18.828;2023-07-16T02:23:35;98581.09;;;23.17;82.48
51239;BME280;38154;47.548;18.828;2023-07-16T02:26:01;98582.28;;;23.11;83.49
51239;BME280;38154;47.548;18.828;2023-07-16T02:28:26;98585.03;;;23.10;84.67
51239;BME280;38154;47.548;18.828;2023-07-16T02:30:52;98583.75;;;23.17;85.25
51239;BME280;38154;47.548;18.828;2023-07-16T02:33:18;98580.16;;;23.18;85.73
51239;BME280;38154;47.548;18.828;2023-07-16T02:35:48;98579.03;;;23.22;85.89
51239;BME280;38154;47.548;18.828;2023-07-16T02:38:23;98581.00;;;23.19;87.14
51239;BME280;38154;47.548;18.828;2023-07-16T02:40:48;98585.22;;;23.23;86.75
51239;BME280;38154;47.548;18.828;2023-07-16T02:43:15;98581.94;;;23.18;88.12
51239;BME280;38154;47.548;18.828;2023-07-16T02:45:40;98590.66;;;23.37;87.14
51239;BME280;38154;47.548;18.828;2023-07-16T02:48:07;98586.03;;;23.41;86.60
51239;BME280;38154;47.548;18.828;2023-07-16T02:50:36;98592.31;;;23.40;86.85
51239;BME280;38154;47.548;18.828;2023-07-16T02:53:06;98580.16;;;23.34;87.56
51239;BME280;38154;47.548;18.828;2023-07-16T02:55:34;98576.66;;;23.49;87.28
51239;BME280;38154;47.548;18.828;2023-07-16T02:58:00;98579.19;;;23.68;85.88
51239;BME280;38154;47.548;18.828;2023-07-16T03:00:30;98580.47;;;23.77;85.89
51239;BME280;38154;47.548;18.828;2023-07-16T03:02:57;98578.50;;;23.81;84.83
51239;BME280;38154;47.548;18.828;2023-07-16T03:05:25;98581.53;;;23.91;84.57
51239;BME280;38154;47.548;18.828;2023-07-16T03:07:51;98585.47;;;23.99;83.86
51239;BME280;38154;47.548;18.828;2023-07-16T03:10:17;98587.81;;;23.89;85.05
51239;BME280;38154;47.548;18.828;2023-07-16T03:12:43;98589.69;;;23.87;84.64
51239;BME280;38154;47.548;18.828;2023-07-16T03:15:09;98590.75;;;23.85;85.23
51239;BME280;38154;47.548;18.828;2023-07-16T03:17:35;98587.81;;;23.89;85.14
51239;BME280;38154;47.548;18.828;2023-07-16T03:20:02;98588.84;;;23.87;85.13
51239;BME280;38154;47.548;18.828;2023-07-16T03:22:29;98596.00;;;23.86;85.45
51239;BME280;38154;47.548;18.828;2023-07-16T03:24:55;98586.28;;;23.85;85.35
51239;BME280;38154;47.548;18.828;2023-07-16T03:27:21;98593.78;;;23.77;85.99
51239;BME280;38154;47.548;18.828;2023-07-16T03:29:46;98592.34;;;23.71;87.02
51239;BME280;38154;47.548;18.828;2023-07-16T03:32:12;98587.88;;;23.72;86.95
51239;BME280;38154;47.548;18.828;2023-07-16T03:34:38;98588.47;;;23.77;86.88
51239;BME280;38154;47.548;18.828;2023-07-16T03:37:04;98583.59;;;23.85;87.07
51239;BME280;38154;47.548;18.828;2023-07-16T03:39:30;98598.53;;;23.88;86.83
51239;BME280;38154;47.548;18.828;2023-07-16T03:41:56;98596.66;;;23.90;87.18
51239;BME280;38154;47.548;18.828;2023-07-16T03:44:22;98603.69;;;23.91;87.43
51239;BME280;38154;47.548;18.828;2023-07-16T03:46:47;98604.06;;;23.85;87.96
51239;BME280;38154;47.548;18.828;2023-07-16T03:49:13;98607.16;;;23.93;87.55
51239;BME280;38154;47.548;18.828;2023-07-16T03:51:39;98610.94;;;24.05;86.62
51239;BME280;38154;47.548;18.828;2023-07-16T03:54:05;98615.53;;;24.01;86.92
51239;BME280;38154;47.548;18.828;2023-07-16T03:56:31;98612.78;;;24.03;87.42
51239;BME280;38154;47.548;18.828;2023-07-16T03:58:57;98602.22;;;24.01;86.67
51239;BME280;38154;47.548;18.828;2023-07-16T04:01:23;98609.88;;;24.07;86.23
51239;BME280;38154;47.548;18.828;2023-07-16T04:03:48;98619.69;;;24.07;86.59
51239;BME280;38154;47.548;18.828;2023-07-16T04:06:14;98614.09;;;24.12;85.38
51239;BME280;38154;47.548;18.828;2023-07-16T04:08:40;98618.12;;;24.19;85.06
51239;BME280;38154;47.548;18.828;2023-07-16T04:11:06;98608.56;;;24.15;85.14
51239;BME280;38154;47.548;18.828;2023-07-16T04:13:32;98599.41;;;24.20;84.61
51239;BME280;38154;47.548;18.828;2023-07-16T04:15:58;98602.41;;;24.30;84.04
51239;BME280;38154;47.548;18.828;2023-07-16T04:18:24;98609.00;;;24.39;83.17
51239;BME280;38154;47.548;18.828;2023-07-16T04:20:50;98604.75;;;24.51;82.83
51239;BME280;38154;47.548;18.828;2023-07-16T04:23:16;98610.44;;;24.60;81.63
51239;BME280;38154;47.548;18.828;2023-07-16T04:25:42;98615.22;;;24.70;80.83
51239;BME280;38154;47.548;18.828;2023-07-16T04:28:10;98616.47;;;24.78;79.53
51239;BME280;38154;47.548;18.828;2023-07-16T04:30:36;98619.59;;;24.71;80.08
51239;BME280;38154;47.548;18.828;2023-07-16T04:33:03;98626.69;;;24.86;78.90
51239;BME280;38154;47.548;18.828;2023-07-16T04:35:29;98625.53;;;24.90;78.11
51239;BME280;38154;47.548;18.828;2023-07-16T04:37:55;98634.59;;;24.88;77.87
51239;BME280;38154;47.548;18.828;2023-07-16T04:40:21;98637.63;;;24.81;77.91
51239;BME280;38154;47.548;18.828;2023-07-16T04:42:47;98641.25;;;24.80;78.66
51239;BME280;38154;47.548;18.828;2023-07-16T04:45:13;98641.94;;;24.84;77.58
51239;BME280;38154;47.548;18.828;2023-07-16T04:47:39;98647.38;;;24.97;76.59
51239;BME280;38154;47.548;18.828;2023-07-16T04:50:05;98650.00;;;25.13;76.92
51239;BME280;38154;47.548;18.828;2023-07-16T04:52:31;98662.66;;;25.24;75.60
51239;BME280;38154;47.548;18.828;2023-07-16T04:54:57;98663.47;;;25.40;75.04
51239;BME280;38154;47.548;18.828;2023-07-16T04:57:23;98671.78;;;25.93;72.79
51239;BME280;38154;47.548;18.828;2023-07-16T04:59:49;98670.81;;;26.23;70.47
51239;BME280;38154;47.548;18.828;2023-07-16T05:02:15;98670.16;;;26.05;71.21
51239;BME280;38154;47.548;18.828;2023-07-16T05:04:42;98673.31;;;25.83;74.69
51239;BME280;38154;47.548;18.828;2023-07-16T05:07:14;98671.97;;;25.76;71.51
51239;BME280;38154;47.548;18.828;2023-07-16T05:09:40;98671.22;;;25.73;71.81
51239;BME280;38154;47.548;18.828;2023-07-16T05:12:06;98667.00;;;25.84;72.26
51239;BME280;38154;47.548;18.828;2023-07-16T05:14:46;98671.88;;;25.77;70.76
51239;BME280;38154;47.548;18.828;2023-07-16T05:17:12;98665.78;;;25.61;67.91
51239;BME280;38154;47.548;18.828;2023-07-16T05:19:38;98661.41;;;25.60;69.24
51239;BME280;38154;47.548;18.828;2023-07-16T05:22:04;98648.72;;;25.63;68.49
51239;BME280;38154;47.548;18.828;2023-07-16T05:24:31;98650.44;;;25.64;67.72
51239;BME280;38154;47.548;18.828;2023-07-16T05:26:56;98655.69;;;25.66;68.70
51239;BME280;38154;47.548;18.828;2023-07-16T05:29:22;98653.97;;;25.79;66.34
51239;BME280;38154;47.548;18.828;2023-07-16T05:31:48;98663.47;;;25.83;67.27
51239;BME280;38154;47.548;18.828;2023-07-16T05:34:14;98658.03;;;25.85;66.72
51239;BME280;38154;47.548;18.828;2023-07-16T05:36:41;98655.50;;;25.98;65.45
51239;BME280;38154;47.548;18.828;2023-07-16T05:39:07;98657.00;;;26.02;64.52
51239;BME280;38154;47.548;18.828;2023-07-16T05:41:34;98665.94;;;26.15;63.95
51239;BME280;38154;47.548;18.828;2023-07-16T05:44:00;98666.59;;;26.19;64.01
51239;BME280;38154;47.548;18.828;2023-07-16T05:46:26;98669.56;;;26.14;64.06
51239;BME280;38154;47.548;18.828;2023-07-16T05:48:52;98667.34;;;26.21;63.60
51239;BME280;38154;47.548;18.828;2023-07-16T05:51:18;98678.12;;;26.34;62.16
51239;BME280;38154;47.548;18.828;2023-07-16T05:53:44;98669.09;;;26.49;62.92
51239;BME280;38154;47.548;18.828;2023-07-16T05:56:10;98680.78;;;26.75;61.26
51239;BME280;38154;47.548;18.828;2023-07-16T05:58:35;98679.28;;;26.84;60.35
51239;BME280;38154;47.548;18.828;2023-07-16T06:01:01;98689.37;;;26.93;62.31
51239;BME280;38154;47.548;18.828;2023-07-16T06:03:27;98685.81;;;26.93;60.15
51239;BME280;38154;47.548;18.828;2023-07-16T06:05:53;98692.16;;;27.05;59.20
51239;BME280;38154;47.548;18.828;2023-07-16T06:08:19;98683.37;;;27.02;59.54
51239;BME280;38154;47.548;18.828;2023-07-16T06:10:45;98681.94;;;27.24;59.58
51239;BME280;38154;47.548;18.828;2023-07-16T06:13:11;98687.53;;;27.60;57.84
51239;BME280;38154;47.548;18.828;2023-07-16T06:15:37;98686.44;;;27.75;56.04
51239;BME280;38154;47.548;18.828;2023-07-16T06:18:03;98685.38;;;27.90;56.22
51239;BME280;38154;47.548;18.828;2023-07-16T06:20:29;98682.97;;;28.24;54.53
51239;BME280;38154;47.548;18.828;2023-07-16T06:22:55;98690.44;;;29.04;52.67
51239;BME280;38154;47.548;18.828;2023-07-16T06:25:20;98696.22;;;30.37;48.26
51239;BME280;38154;47.548;18.828;2023-07-16T06:27:47;98698.31;;;31.73;45.45
51239;BME280;38154;47.548;18.828;2023-07-16T06:30:13;98701.75;;;33.44;41.81
51239;BME280;38154;47.548;18.828;2023-07-16T06:32:39;98710.03;;;34.17;39.61
51239;BME280;38154;47.548;18.828;2023-07-16T06:35:05;98702.22;;;33.77;39.53
51239;BME280;38154;47.548;18.828;2023-07-16T06:37:31;98707.78;;;34.41;38.74
51239;BME280;38154;47.548;18.828;2023-07-16T06:39:57;98714.03;;;35.67;36.16
51239;BME280;38154;47.548;18.828;2023-07-16T06:42:23;98706.31;;;35.10;36.89
51239;BME280;38154;47.548;18.828;2023-07-16T06:44:49;98721.56;;;36.08;34.44
51239;BME280;38154;47.548;18.828;2023-07-16T06:47:14;98707.06;;;37.17;33.71
51239;BME280;38154;47.548;18.828;2023-07-16T06:49:41;98719.56;;;38.79;30.71
51239;BME280;38154;47.548;18.828;2023-07-16T06:52:07;98723.09;;;38.88;30.15
51239;BME280;38154;47.548;18.828;2023-07-16T06:54:32;98720.84;;;38.92;29.95
51239;BME280;38154;47.548;18.828;2023-07-16T06:56:58;98716.97;;;39.70;28.76
51239;BME280;38154;47.548;18.828;2023-07-16T06:59:24;98719.19;;;40.56;27.35
51239;BME280;38154;47.548;18.828;2023-07-16T07:01:50;98718.19;;;40.42;27.60
51239;BME280;38154;47.548;18.828;2023-07-16T07:04:16;98725.59;;;41.78;26.13
51239;BME280;38154;47.548;18.828;2023-07-16T07:06:42;98720.84;;;42.29;25.00
51239;BME280;38154;47.548;18.828;2023-07-16T07:09:08;98733.69;;;42.76;24.94
51239;BME280;38154;47.548;18.828;2023-07-16T07:11:34;98744.66;;;42.83;24.14
51239;BME280;38154;47.548;18.828;2023-07-16T07:13:59;98745.78;;;43.09;24.16
51239;BME280;38154;47.548;18.828;2023-07-16T07:16:25;98746.50;;;43.38;24.22
51239;BME280;38154;47.548;18.828;2023-07-16T07:18:51;98737.38;;;43.37;23.72
51239;BME280;38154;47.548;18.828;2023-07-16T07:21:17;98738.97;;;42.78;24.48
51239;BME280;38154;47.548;18.828;2023-07-16T07:23:43;98736.44;;;42.83;24.23
51239;BME280;38154;47.548;18.828;2023-07-16T07:26:09;98736.09;;;42.44;24.85
51239;BME280;38154;47.548;18.828;2023-07-16T07:28:35;98727.56;;;41.91;25.06
51239;BME280;38154;47.548;18.828;2023-07-16T07:31:01;98737.88;;;42.17;25.02
51239;BME280;38154;47.548;18.828;2023-07-16T07:33:27;98728.09;;;41.73;25.45
51239;BME280;38154;47.548;18.828;2023-07-16T07:35:53;98729.41;;;42.12;25.21
51239;BME280;38154;47.548;18.828;2023-07-16T07:38:20;98733.22;;;42.59;24.64
51239;BME280;38154;47.548;18.828;2023-07-16T07:40:46;98727.19;;;42.36;24.87
51239;BME280;38154;47.548;18.828;2023-07-16T07:43:12;98733.66;;;42.70;25.04
51239;BME280;38154;47.548;18.828;2023-07-16T07:45:38;98732.34;;;41.54;25.88
51239;BME280;38154;47.548;18.828;2023-07-16T07:48:05;98726.34;;;41.65;25.73
51239;BME280;38154;47.548;18.828;2023-07-16T07:50:30;98728.78;;;42.10;25.04
51239;BME280;38154;47.548;18.828;2023-07-16T07:52:56;98722.81;;;42.48;24.90
51239;BME280;38154;47.548;18.828;2023-07-16T07:55:22;98731.31;;;42.60;24.70
51239;BME280;38154;47.548;18.828;2023-07-16T07:57:48;98734.72;;;42.82;24.36
51239;BME280;38154;47.548;18.828;2023-07-16T08:00:14;98732.84;;;42.83;24.34
51239;BME280;38154;47.548;18.828;2023-07-16T08:02:40;98733.22;;;42.66;24.13
51239;BME280;38154;47.548;18.828;2023-07-16T08:05:06;98720.06;;;42.06;24.93
51239;BME280;38154;47.548;18.828;2023-07-16T08:07:32;98728.06;;;42.43;24.72
51239;BME280;38154;47.548;18.828;2023-07-16T08:09:58;98729.25;;;42.82;24.92
51239;BME280;38154;47.548;18.828;2023-07-16T08:12:24;98740.44;;;42.74;24.62
51239;BME280;38154;47.548;18.828;2023-07-16T08:14:50;98739.22;;;44.03;23.65
51239;BME280;38154;47.548;18.828;2023-07-16T08:17:16;98739.50;;;43.55;23.26
51239;BME280;38154;47.548;18.828;2023-07-16T08:19:42;98745.63;;;43.77;22.96
51239;BME280;38154;47.548;18.828;2023-07-16T08:22:07;98737.41;;;44.42;22.74
51239;BME280;38154;47.548;18.828;2023-07-16T08:24:33;98733.13;;;44.53;22.80
51239;BME280;38154;47.548;18.828;2023-07-16T08:26:59;98732.50;;;43.52;23.39
51239;BME280;38154;47.548;18.828;2023-07-16T08:29:25;98734.41;;;43.25;23.64
51239;BME280;38154;47.548;18.828;2023-07-16T08:31:51;98717.88;;;41.88;25.99
51239;BME280;38154;47.548;18.828;2023-07-16T08:34:17;98716.78;;;42.66;25.18
51239;BME280;38154;47.548;18.828;2023-07-16T08:36:43;98723.41;;;43.18;24.74
51239;BME280;38154;47.548;18.828;2023-07-16T08:39:09;98722.81;;;42.06;25.30
51239;BME280;38154;47.548;18.828;2023-07-16T08:41:35;98733.31;;;40.96;25.91
51239;BME280;38154;47.548;18.828;2023-07-16T08:44:01;98738.00;;;42.09;24.93
51239;BME280;38154;47.548;18.828;2023-07-16T08:46:27;98733.47;;;42.23;24.60
51239;BME280;38154;47.548;18.828;2023-07-16T08:48:53;98728.09;;;41.45;26.07
51239;BME280;38154;47.548;18.828;2023-07-16T08:51:20;98741.06;;;40.93;26.46
51239;BME280;38154;47.548;18.828;2023-07-16T08:53:47;98738.78;;;41.68;25.57
51239;BME280;38154;47.548;18.828;2023-07-16T08:56:12;98733.69;;;40.93;26.16
51239;BME280;38154;47.548;18.828;2023-07-16T08:58:38;98742.78;;;41.94;25.50
51239;BME280;38154;47.548;18.828;2023-07-16T09:01:06;98737.38;;;41.72;25.32
51239;BME280;38154;47.548;18.828;2023-07-16T09:03:31;98735.66;;;41.71;25.35
51239;BME280;38154;47.548;18.828;2023-07-16T09:05:57;98736.91;;;42.45;24.72
51239;BME280;38154;47.548;18.828;2023-07-16T09:08:23;98745.09;;;42.93;24.66
51239;BME280;38154;47.548;18.828;2023-07-16T09:10:55;98743.03;;;42.40;25.51
51239;BME280;38154;47.548;18.828;2023-07-16T09:13:22;98739.84;;;42.43;25.06
51239;BME280;38154;47.548;18.828;2023-07-16T09:15:57;98730.31;;;41.91;25.40
51239;BME280;38154;47.548;18.828;2023-07-16T09:18:25;98740.59;;;42.52;25.24
51239;BME280;38154;47.548;18.828;2023-07-16T09:20:58;98730.81;;;42.08;24.78
51239;BME280;38154;47.548;18.828;2023-07-16T09:23:27;98746.09;;;42.66;24.56
51239;BME280;38154;47.548;18.828;2023-07-16T09:25:55;98743.69;;;43.04;23.72
51239;BME280;38154;47.548;18.828;2023-07-16T09:28:21;98740.69;;;42.37;24.48
51239;BME280;38154;47.548;18.828;2023-07-16T09:30:48;98738.78;;;42.93;24.75
51239;BME280;38154;47.548;18.828;2023-07-16T09:33:15;98741.13;;;42.96;24.83
51239;BME280;38154;47.548;18.828;2023-07-16T09:35:42;98731.47;;;42.52;24.70
51239;BME280;38154;47.548;18.828;2023-07-16T09:38:08;98735.09;;;42.11;24.94
51239;BME280;38154;47.548;18.828;2023-07-16T09:40:37;98731.03;;;41.43;26.34
51239;BME280;38154;47.548;18.828;2023-07-16T09:43:03;98741.75;;;42.36;26.10
51239;BME280;38154;47.548;18.828;2023-07-16T09:45:30;98739.03;;;42.43;24.90
51239;BME280;38154;47.548;18.828;2023-07-16T09:47:56;98741.16;;;43.09;23.94
51239;BME280;38154;47.548;18.828;2023-07-16T09:50:23;98739.84;;;44.19;23.03
51239;BME280;38154;47.548;18.828;2023-07-16T09:52:51;98741.41;;;43.61;23.58
51239;BME280;38154;47.548;18.828;2023-07-16T09:55:18;98739.19;;;42.90;24.37
51239;BME280;38154;47.548;18.828;2023-07-16T09:57:48;98735.72;;;42.54;24.58
51239;BME280;38154;47.548;18.828;2023-07-16T10:00:16;98734.25;;;42.58;25.12
51239;BME280;38154;47.548;18.828;2023-07-16T10:02:44;98730.13;;;41.93;25.57
51239;BME280;38154;47.548;18.828;2023-07-16T10:05:16;98726.34;;;41.65;25.92
51239;BME280;38154;47.548;18.828;2023-07-16T10:07:48;98725.16;;;41.75;25.54
51239;BME280;38154;47.548;18.828;2023-07-16T10:10:15;98714.06;;;41.26;26.57
51239;BME280;38154;47.548;18.828;2023-07-16T10:12:53;98715.97;;;41.11;26.63
51239;BME280;38154;47.548;18.828;2023-07-16T10:15:27;98721.81;;;41.79;26.22
51239;BME280;38154;47.548;18.828;2023-07-16T10:17:54;98716.47;;;42.48;25.12
51239;BME280;38154;47.548;18.828;2023-07-16T10:20:36;98724.91;;;43.01;24.73
51239;BME280;38154;47.548;18.828;2023-07-16T10:23:15;98714.63;;;42.55;25.06
51239;BME280;38154;47.548;18.828;2023-07-16T10:26:01;98705.66;;;41.91;26.16
51239;BME280;38154;47.548;18.828;2023-07-16T10:28:35;98713.00;;;42.87;24.87
51239;BME280;38154;47.548;18.828;2023-07-16T10:31:01;98714.13;;;43.26;24.64
51239;BME280;38154;47.548;18.828;2023-07-16T10:33:27;98716.91;;;43.53;23.96
51239;BME280;38154;47.548;18.828;2023-07-16T10:35:56;98709.25;;;43.68;24.08
51239;BME280;38154;47.548;18.828;2023-07-16T10:38:22;98706.31;;;43.23;24.71
51239;BME280;38154;47.548;18.828;2023-07-16T10:40:48;98702.72;;;41.36;26.63
51239;BME280;38154;47.548;18.828;2023-07-16T10:43:14;98701.84;;;41.57;26.75
51239;BME280;38154;47.548;18.828;2023-07-16T10:45:40;98701.66;;;41.09;27.57
51239;BME280;38154;47.548;18.828;2023-07-16T10:48:07;98697.56;;;41.48;26.02
51239;BME280;38154;47.548;18.828;2023-07-16T10:50:34;98702.19;;;39.95;28.03
51239;BME280;38154;47.548;18.828;2023-07-16T10:53:01;98700.78;;;38.62;29.97
51239;BME280;38154;47.548;18.828;2023-07-16T10:55:28;98691.47;;;38.16;31.76
51239;BME280;38154;47.548;18.828;2023-07-16T10:57:55;98691.47;;;37.03;32.53
51239;BME280;38154;47.548;18.828;2023-07-16T11:00:22;98689.50;;;37.85;31.98
51239;BME280;38154;47.548;18.828;2023-07-16T11:02:51;98686.19;;;38.46;31.71
51239;BME280;38154;47.548;18.828;2023-07-16T11:05:18;98685.25;;;39.99;30.20
51239;BME280;38154;47.548;18.828;2023-07-16T11:07:48;98694.19;;;41.24;27.43
51239;BME280;38154;47.548;18.828;2023-07-16T11:10:17;98689.13;;;41.21;26.34
51239;BME280;38154;47.548;18.828;2023-07-16T11:12:44;98691.16;;;39.35;28.74
51239;BME280;38154;47.548;18.828;2023-07-16T11:15:10;98692.44;;;38.63;30.14
51239;BME280;38154;47.548;18.828;2023-07-16T11:17:39;98695.28;;;40.29;28.82
51239;BME280;38154;47.548;18.828;2023-07-16T11:20:08;98682.47;;;42.22;27.04
51239;BME280;38154;47.548;18.828;2023-07-16T11:22:38;98693.53;;;42.62;24.88
51239;BME280;38154;47.548;18.828;2023-07-16T11:25:11;98690.69;;;42.22;24.47
51239;BME280;38154;47.548;18.828;2023-07-16T11:27:40;98695.81;;;41.97;25.51
51239;BME280;38154;47.548;18.828;2023-07-16T11:30:07;98693.03;;;40.69;27.05
51239;BME280;38154;47.548;18.828;2023-07-16T11:35:02;98685.31;;;39.91;29.17
51239;BME280;38154;47.548;18.828;2023-07-16T11:37:30;98689.87;;;39.08;29.97
51239;BME280;38154;47.548;18.828;2023-07-16T11:39:57;98689.50;;;38.33;29.82
51239;BME280;38154;47.548;18.828;2023-07-16T11:44:56;98679.97;;;38.29;31.64
51239;BME280;38154;47.548;18.828;2023-07-16T11:47:23;98686.50;;;37.56;32.52
51239;BME280;38154;47.548;18.828;2023-07-16T11:49:49;98681.38;;;37.69;31.71
51239;BME280;38154;47.548;18.828;2023-07-16T11:52:20;98681.94;;;36.90;32.50
51239;BME280;38154;47.548;18.828;2023-07-16T11:54:47;98675.69;;;36.22;33.83
51239;BME280;38154;47.548;18.828;2023-07-16T11:57:13;98676.94;;;35.41;34.03
51239;BME280;38154;47.548;18.828;2023-07-16T11:59:39;98670.38;;;35.08;36.35
51239;BME280;38154;47.548;18.828;2023-07-16T12:02:05;98672.50;;;34.96;36.96
51239;BME280;38154;47.548;18.828;2023-07-16T12:04:32;98672.31;;;34.98;35.62
51239;BME280;38154;47.548;18.828;2023-07-16T12:06:58;98679.25;;;35.62;36.68
51239;BME280;38154;47.548;18.828;2023-07-16T12:09:24;98675.03;;;36.29;34.50
51239;BME280;38154;47.548;18.828;2023-07-16T12:11:50;98661.50;;;36.45;35.10
51239;BME280;38154;47.548;18.828;2023-07-16T12:14:16;98660.88;;;37.09;33.59
51239;BME280;38154;47.548;18.828;2023-07-16T12:16:41;98665.41;;;37.58;33.83
51239;BME280;38154;47.548;18.828;2023-07-16T12:19:08;98657.09;;;37.59;33.40
51239;BME280;38154;47.548;18.828;2023-07-16T12:21:34;98661.69;;;37.50;32.74
51239;BME280;38154;47.548;18.828;2023-07-16T12:24:00;98667.81;;;36.19;34.95
51239;BME280;38154;47.548;18.828;2023-07-16T12:26:27;98666.91;;;35.42;36.50
51239;BME280;38154;47.548;18.828;2023-07-16T12:28:53;98659.19;;;35.29;37.13
51239;BME280;38154;47.548;18.828;2023-07-16T12:31:19;98666.97;;;35.24;36.35
51239;BME280;38154;47.548;18.828;2023-07-16T12:33:48;98664.06;;;34.81;37.32
51239;BME280;38154;47.548;18.828;2023-07-16T12:36:14;98664.88;;;34.46;38.14
51239;BME280;38154;47.548;18.828;2023-07-16T12:38:41;98668.09;;;34.31;38.87
51239;BME280;38154;47.548;18.828;2023-07-16T12:41:07;98663.12;;;33.99;39.12
51239;BME280;38154;47.548;18.828;2023-07-16T12:43:33;98663.69;;;34.03;38.45
51239;BME280;38154;47.548;18.828;2023-07-16T12:46:01;98664.94;;;33.80;40.54
51239;BME280;38154;47.548;18.828;2023-07-16T12:48:29;98661.84;;;33.65;40.99
51239;BME280;38154;47.548;18.828;2023-07-16T12:50:55;98664.12;;;33.60;41.12
51239;BME280;38154;47.548;18.828;2023-07-16T12:53:22;98670.00;;;33.46;41.26
51239;BME280;38154;47.548;18.828;2023-07-16T12:55:48;98666.06;;;33.11;40.37
51239;BME280;38154;47.548;18.828;2023-07-16T12:58:14;98669.34;;;33.05;42.02
51239;BME280;38154;47.548;18.828;2023-07-16T13:00:40;98666.94;;;33.02;42.25